Archer, Nebraska
Current Conditions -  °F | °C
As of 12:53 PM on Saturday 25 Oct 2014 (Local Time) from KGRI Reporting Station
Clear Clear  
Wind Chill: 21°   Ceiling: Unl
Heat Index: 21°   Visibility: 10mi
Dew Point:   Wind: 6mph
Humidity: 39%   Direction: 90°E
Pressure: 30.12"   Gusts: NA
Location:  41.17°N, 98.14°W
Report Text: KGRI 251753Z 09005KT 10SM CLR 21/07 A3012 RMK AO2 SLP197 T02110067 10211 20056 58004
Loading
Personal Weather Stations






























Interactive Weather Map
Tropical Storm Tracking
New forecast layout! Learn more

10-Day Weather Forecast

Advertisements
Track Severe Weather on mobile